Time;durP1;ratioP1;P1;durP2;ratioP2;P2;SDS_P1;SDS_P2;PMS_P1;PMS_P2;Temp;Humidity;BMP_temperature;BMP_pressure;BME280_temperature;BME280_humidity;BME280_pressure;Samples;Min_cycle;Max_cycle;Signal;HPM_P1;HPM_P2
2021/06/24 00:01:35;;;;;;;0.70;0.20;;;16.50;70.30;;;;;;5012664;28;20030;-84
2021/06/24 00:04:02;;;;;;;2.28;0.50;;;16.50;70.30;;;;;;5011469;28;20049;-83
2021/06/24 00:06:28;;;;;;;0.93;0.30;;;16.50;70.30;;;;;;5028868;28;20026;-84
2021/06/24 00:08:54;;;;;;;7.03;0.35;;;16.50;70.20;;;;;;5012448;28;20085;-83
2021/06/24 00:11:20;;;;;;;0.52;0.28;;;16.50;70.20;;;;;;5013346;28;20037;-84
2021/06/24 00:13:46;;;;;;;2.85;0.20;;;16.50;70.20;;;;;;5028313;28;20042;-84
2021/06/24 00:16:12;;;;;;;1.45;0.50;;;16.50;70.20;;;;;;5012506;28;20038;-84
2021/06/24 00:18:38;;;;;;;0.25;0.15;;;16.50;70.20;;;;;;5013283;28;20037;-84
2021/06/24 00:21:05;;;;;;;5.38;0.65;;;16.50;70.20;;;;;;5012372;28;20484;-84
2021/06/24 00:23:31;;;;;;;1.23;0.38;;;16.50;70.10;;;;;;5028219;28;20392;-84
2021/06/24 00:25:57;;;;;;;1.95;0.15;;;16.50;70.10;;;;;;5012873;28;20034;-84
2021/06/24 00:28:26;;;;;;;1.13;0.25;;;16.50;70.10;;;;;;5011567;28;20060;-83
2021/06/24 00:30:55;;;;;;;0.25;0.17;;;16.50;70.10;;;;;;5027141;28;20042;-84
2021/06/24 00:33:21;;;;;;;0.63;0.38;;;16.50;70.10;;;;;;5012612;28;20048;-84
2021/06/24 00:35:47;;;;;;;0.73;0.32;;;16.50;70.20;;;;;;5012959;28;20403;-83
2021/06/24 00:38:14;;;;;;;1.25;0.55;;;16.40;70.20;;;;;;5027891;28;20038;-83
2021/06/24 00:40:40;;;;;;;0.30;0.10;;;16.40;70.20;;;;;;5012270;28;20530;-83
2021/06/24 00:43:14;;;;;;;1.85;0.20;;;16.40;70.20;;;;;;5012586;28;20030;-83
2021/06/24 00:45:40;;;;;;;0.28;0.10;;;16.40;70.20;;;;;;5027172;28;20033;-84
2021/06/24 00:48:07;;;;;;;1.75;0.30;;;16.40;70.20;;;;;;5012888;28;20431;-84
2021/06/24 00:50:34;;;;;;;0.35;0.20;;;16.40;70.20;;;;;;5027544;28;20033;-84
2021/06/24 00:53:00;;;;;;;1.25;0.25;;;16.30;70.20;;;;;;5027840;28;20021;-84
2021/06/24 00:55:45;;;;;;;0.30;0.20;;;16.30;70.10;;;;;;5012677;28;20037;-83
2021/06/24 00:58:17;;;;;;;1.55;0.20;;;16.30;70.20;;;;;;4999189;28;20057;-84
2021/06/24 01:00:44;;;;;;;0.30;0.10;;;16.30;70.20;;;;;;5027009;28;20511;-85
2021/06/24 01:03:11;;;;;;;0.15;0.10;;;16.30;70.20;;;;;;5008633;28;20045;-83
2021/06/24 01:05:37;;;;;;;0.45;0.13;;;16.20;70.10;;;;;;5010351;28;20048;-84
2021/06/24 01:08:07;;;;;;;0.35;0.20;;;16.20;70.90;;;;;;5012149;28;20045;-84
2021/06/24 01:10:33;;;;;;;0.45;0.20;;;16.20;70.20;;;;;;5012243;28;20034;-84
2021/06/24 01:12:59;;;;;;;1.00;0.40;;;16.20;70.20;;;;;;5011896;28;20042;-84
2021/06/24 01:15:25;;;;;;;1.02;0.38;;;16.20;70.10;;;;;;5027776;28;20041;-83
2021/06/24 01:17:52;;;;;;;2.78;0.57;;;16.10;70.10;;;;;;5012183;28;20460;-84
2021/06/24 01:20:22;;;;;;;0.10;0.10;;;16.10;70.10;;;;;;5027521;28;20042;-86
2021/06/24 01:22:48;;;;;;;8.03;0.63;;;16.10;70.00;;;;;;5011101;28;20042;-84
2021/06/24 01:25:14;;;;;;;0.50;0.03;;;16.20;70.10;;;;;;5012174;28;20034;-83
2021/06/24 01:27:40;;;;;;;3.72;0.32;;;16.10;70.00;;;;;;5027016;28;20042;-83
2021/06/24 01:30:08;;;;;;;0.93;0.30;;;16.10;70.00;;;;;;5012024;28;20042;-83
2021/06/24 01:32:34;;;;;;;1.02;0.50;;;16.10;70.00;;;;;;5027132;28;20033;-83
2021/06/24 01:35:00;;;;;;;0.57;0.10;;;16.10;70.00;;;;;;5007494;28;20057;-84
2021/06/24 01:37:26;;;;;;;0.40;0.10;;;16.10;70.00;;;;;;5000344;28;20026;-84
2021/06/24 01:39:52;;;;;;;0.25;0.13;;;16.10;70.00;;;;;;5011953;28;20400;-83
2021/06/24 01:42:18;;;;;;;2.83;0.52;;;16.00;70.00;;;;;;5012273;28;20029;-83
2021/06/24 01:44:44;;;;;;;0.00;0.00;;;16.10;70.00;;;;;;5011905;28;20539;-84
2021/06/24 01:47:11;;;;;;;0.45;0.20;;;16.00;70.00;;;;;;5026570;28;20041;-83
2021/06/24 01:49:38;;;;;;;0.45;0.20;;;16.00;70.00;;;;;;5011899;28;20140;-83
2021/06/24 01:52:04;;;;;;;8.63;0.60;;;16.00;70.00;;;;;;5012245;28;20029;-83
2021/06/24 01:54:30;;;;;;;1.23;0.35;;;16.00;70.10;;;;;;5016503;28;20049;-81
2021/06/24 01:56:56;;;;;;;1.95;0.25;;;16.00;70.10;;;;;;5015737;28;20042;-84
2021/06/24 01:59:22;;;;;;;0.50;0.20;;;16.00;70.10;;;;;;5031073;28;20034;-83
2021/06/24 02:01:48;;;;;;;0.52;0.10;;;16.00;70.10;;;;;;5015216;28;20030;-83
2021/06/24 02:04:14;;;;;;;0.13;0.10;;;16.00;70.20;;;;;;5031192;28;20081;-84
2021/06/24 02:06:41;;;;;;;1.10;0.35;;;16.00;70.10;;;;;;5015751;28;20022;-84
2021/06/24 02:09:07;;;;;;;0.70;0.30;;;16.00;70.10;;;;;;4995481;28;20050;-84
2021/06/24 02:11:33;;;;;;;0.43;0.25;;;16.00;70.10;;;;;;5011660;28;20029;-83
2021/06/24 02:13:59;;;;;;;0.30;0.20;;;16.00;70.10;;;;;;5030847;28;20029;-83
2021/06/24 02:16:25;;;;;;;2.67;0.20;;;16.00;70.10;;;;;;5014826;28;20037;-84
2021/06/24 02:18:52;;;;;;;0.40;0.15;;;16.00;70.10;;;;;;5015333;28;20392;-82
2021/06/24 02:21:18;;;;;;;0.50;0.30;;;16.00;70.10;;;;;;5016027;28;20033;-83
2021/06/24 02:23:44;;;;;;;1.00;0.20;;;16.00;70.10;;;;;;5015266;28;20400;-84
2021/06/24 02:26:11;;;;;;;1.02;0.35;;;16.00;70.10;;;;;;5014977;28;20033;-82
2021/06/24 02:28:37;;;;;;;0.70;0.10;;;16.00;70.20;;;;;;5014890;28;20065;-83
2021/06/24 02:31:03;;;;;;;0.85;0.32;;;16.00;70.20;;;;;;5029991;28;20404;-84
2021/06/24 02:33:30;;;;;;;1.38;0.32;;;15.90;70.10;;;;;;5015837;28;20042;-83
2021/06/24 02:35:57;;;;;;;0.75;0.52;;;15.90;70.20;;;;;;5013966;28;20034;-81
2021/06/24 02:38:23;;;;;;;1.10;0.15;;;15.90;70.10;;;;;;5014998;28;20037;-83
2021/06/24 02:40:49;;;;;;;0.70;0.17;;;15.90;70.20;;;;;;5030428;28;20044;-84
2021/06/24 02:43:15;;;;;;;1.55;0.20;;;15.80;70.10;;;;;;5016267;28;20041;-83
2021/06/24 02:45:42;;;;;;;0.17;0.05;;;15.90;70.30;;;;;;5030824;28;20503;-83
2021/06/24 02:48:08;;;;;;;0.40;0.20;;;15.90;70.30;;;;;;5012972;28;20480;-84
2021/06/24 02:50:35;;;;;;;0.40;0.20;;;15.90;70.30;;;;;;5015015;28;20432;-84
2021/06/24 02:53:01;;;;;;;1.40;0.30;;;15.80;70.30;;;;;;5029869;28;20037;-84
2021/06/24 02:55:30;;;;;;;1.80;0.30;;;15.80;70.40;;;;;;5014563;28;20488;-82
2021/06/24 02:57:58;;;;;;;13.48;0.40;;;15.80;70.50;;;;;;5013807;28;20032;-84
2021/06/24 03:00:24;;;;;;;0.93;0.50;;;15.70;70.40;;;;;;5013790;28;20038;-83
2021/06/24 03:02:51;;;;;;;0.73;0.20;;;15.80;70.50;;;;;;5014484;28;20030;-85
2021/06/24 03:05:17;;;;;;;1.95;0.30;;;15.70;70.50;;;;;;5028981;28;20522;-84
2021/06/24 03:07:43;;;;;;;0.93;0.45;;;15.70;70.60;;;;;;5014378;28;20054;-83
2021/06/24 03:10:10;;;;;;;0.60;0.17;;;15.70;70.60;;;;;;5014322;28;20033;-83
2021/06/24 03:12:36;;;;;;;0.30;0.10;;;15.70;70.70;;;;;;5029793;28;20033;-82
2021/06/24 03:15:06;;;;;;;0.38;0.10;;;15.60;70.60;;;;;;5014314;28;20038;-78
2021/06/24 03:17:32;;;;;;;0.57;0.30;;;15.60;70.80;;;;;;5009387;28;20043;-84
2021/06/24 03:19:58;;;;;;;0.93;0.40;;;15.60;70.80;;;;;;5022093;28;20040;-83
2021/06/24 03:22:24;;;;;;;1.33;0.30;;;15.60;70.80;;;;;;5014457;28;20033;-84
2021/06/24 03:24:50;;;;;;;0.47;0.28;;;15.60;70.80;;;;;;5013905;28;20037;-83
2021/06/24 03:27:17;;;;;;;0.40;0.10;;;15.60;70.90;;;;;;5013357;28;20033;-84
2021/06/24 03:29:43;;;;;;;0.85;0.30;;;15.60;70.90;;;;;;5013890;28;20515;-84
2021/06/24 03:32:09;;;;;;;0.50;0.20;;;15.60;70.90;;;;;;5028929;28;20030;-84
2021/06/24 03:34:35;;;;;;;1.80;1.00;;;15.60;71.00;;;;;;5029232;28;20037;-84
2021/06/24 03:37:01;;;;;;;5.43;0.30;;;15.60;71.00;;;;;;5013763;28;20040;-83
2021/06/24 03:39:27;;;;;;;0.22;0.10;;;15.60;71.00;;;;;;5014089;28;20060;-81
2021/06/24 03:41:53;;;;;;;4.68;0.22;;;15.50;71.00;;;;;;5001027;28;20030;-84
2021/06/24 03:44:19;;;;;;;0.30;0.10;;;15.50;71.10;;;;;;5013920;28;20396;-83
2021/06/24 03:46:45;;;;;;;0.32;0.10;;;15.50;71.10;;;;;;5028608;28;20037;-84
2021/06/24 03:49:11;;;;;;;0.10;0.00;;;15.40;71.10;;;;;;5012434;28;20057;-83
2021/06/24 03:51:37;;;;;;;0.70;0.52;;;15.50;71.20;;;;;;5013836;28;20369;-83
2021/06/24 03:54:04;;;;;;;0.30;0.03;;;15.40;71.20;;;;;;5013758;28;20037;-83
2021/06/24 03:56:30;;;;;;;2.67;0.55;;;15.40;71.30;;;;;;5013623;28;20030;-83
2021/06/24 03:58:56;;;;;;;1.15;0.30;;;15.40;71.40;;;;;;5013720;28;20037;-83
2021/06/24 04:01:22;;;;;;;0.38;0.10;;;15.40;71.40;;;;;;5028462;28;20038;-85
2021/06/24 04:03:48;;;;;;;3.22;0.20;;;15.30;71.50;;;;;;5013496;28;20480;-82
2021/06/24 04:06:14;;;;;;;1.70;0.35;;;15.30;71.50;;;;;;5012846;28;20089;-83
2021/06/24 04:08:40;;;;;;;0.65;0.22;;;15.30;71.60;;;;;;5012813;28;20060;-84
2021/06/24 04:11:07;;;;;;;0.45;0.20;;;15.30;71.60;;;;;;5028532;28;20037;-84
2021/06/24 04:13:33;;;;;;;0.15;0.10;;;15.30;71.60;;;;;;5013291;28;20368;-84
2021/06/24 04:15:59;;;;;;;0.20;0.10;;;15.30;71.60;;;;;;5012634;28;20041;-82
2021/06/24 04:18:25;;;;;;;0.65;0.40;;;15.30;71.60;;;;;;5029052;28;20399;-84
2021/06/24 04:20:51;;;;;;;2.53;0.50;;;15.20;71.60;;;;;;5013171;28;20038;-84
2021/06/24 04:23:17;;;;;;;0.95;0.45;;;15.20;71.70;;;;;;5012813;28;20399;-84
2021/06/24 04:25:43;;;;;;;0.52;0.20;;;15.20;71.80;;;;;;5013128;28;20033;-83
2021/06/24 04:28:09;;;;;;;8.35;0.45;;;15.20;71.80;;;;;;5027968;28;20050;-84
2021/06/24 04:30:35;;;;;;;0.57;0.20;;;15.20;71.80;;;;;;5012547;28;20408;-83
2021/06/24 04:33:01;;;;;;;0.22;0.00;;;15.20;71.80;;;;;;5013561;28;20042;-83
2021/06/24 04:35:27;;;;;;;8.05;0.35;;;15.10;71.70;;;;;;5028077;28;20026;-84
2021/06/24 04:37:54;;;;;;;0.90;0.25;;;15.10;71.80;;;;;;5012505;28;20377;-85
2021/06/24 04:40:20;;;;;;;8.60;0.40;;;15.10;71.90;;;;;;5011527;28;20034;-84
2021/06/24 04:42:46;;;;;;;0.43;0.10;;;15.10;71.90;;;;;;5012833;28;20029;-84
2021/06/24 04:45:13;;;;;;;1.10;0.43;;;15.10;71.90;;;;;;5012807;28;20041;-84
2021/06/24 04:47:40;;;;;;;0.20;0.10;;;15.10;71.90;;;;;;5012534;28;20033;-84
2021/06/24 04:50:06;;;;;;;0.25;0.10;;;15.10;71.90;;;;;;5012536;28;20514;-83
2021/06/24 04:52:33;;;;;;;0.15;0.10;;;15.10;71.90;;;;;;5012312;28;20037;-83
2021/06/24 04:54:59;;;;;;;1.08;0.45;;;15.10;71.80;;;;;;5027749;28;20038;-85
2021/06/24 04:57:25;;;;;;;0.20;0.10;;;15.20;71.70;;;;;;5013065;28;20037;-83
2021/06/24 04:59:51;;;;;;;1.48;0.25;;;15.30;71.50;;;;;;5027626;28;20034;-84
2021/06/24 05:02:17;;;;;;;0.82;0.40;;;15.30;71.50;;;;;;5011968;28;20412;-84
2021/06/24 05:04:44;;;;;;;2.33;0.50;;;15.30;71.50;;;;;;5012363;28;20049;-84
2021/06/24 05:07:10;;;;;;;7.03;0.20;;;15.40;71.40;;;;;;5012330;28;20037;-84
2021/06/24 05:09:41;;;;;;;1.20;0.22;;;15.50;71.40;;;;;;5027679;28;20273;-84
2021/06/24 05:12:08;;;;;;;0.67;0.10;;;15.60;71.30;;;;;;5012792;28;20384;-83
2021/06/24 05:14:35;;;;;;;0.60;0.25;;;15.70;71.10;;;;;;5012325;28;20029;-85
2021/06/24 05:17:01;;;;;;;0.45;0.25;;;15.80;70.90;;;;;;5011708;28;20034;-84
2021/06/24 05:19:27;;;;;;;2.60;0.17;;;15.90;70.80;;;;;;5011925;28;20033;-85
2021/06/24 05:21:54;;;;;;;8.77;0.35;;;16.00;70.70;;;;;;5027463;28;20045;-82
2021/06/24 05:24:20;;;;;;;0.90;0.25;;;16.10;70.50;;;;;;5011468;28;20030;-84
2021/06/24 05:26:46;;;;;;;0.30;0.30;;;16.20;70.30;;;;;;5011800;28;20034;-84
2021/06/24 05:29:12;;;;;;;0.25;0.10;;;16.30;70.30;;;;;;5011673;28;20053;-84
2021/06/24 05:31:39;;;;;;;0.00;0.00;;;16.30;70.10;;;;;;5011584;28;20041;-83
2021/06/24 05:34:05;;;;;;;1.42;0.38;;;16.40;70.10;;;;;;5011665;28;20033;-84
2021/06/24 05:36:33;;;;;;;0.30;0.10;;;16.50;70.00;;;;;;5012250;28;20060;-85
2021/06/24 05:38:59;;;;;;;0.98;0.15;;;16.60;69.80;;;;;;5012670;28;20064;-84
2021/06/24 05:41:26;;;;;;;0.75;0.30;;;16.80;69.60;;;;;;5011969;28;20052;-83
2021/06/24 05:43:52;;;;;;;0.60;0.20;;;16.80;69.30;;;;;;5026947;28;20029;-84
2021/06/24 05:46:18;;;;;;;3.83;0.85;;;16.90;69.40;;;;;;5026794;28;20053;-83
2021/06/24 05:48:44;;;;;;;0.30;0.13;;;16.90;69.20;;;;;;5010227;28;20046;-84
2021/06/24 05:51:11;;;;;;;0.75;0.00;;;17.00;69.20;;;;;;5012663;28;20070;-84
2021/06/24 05:53:37;;;;;;;5.30;0.25;;;17.00;69.10;;;;;;5007256;28;20041;-83
2021/06/24 05:56:04;;;;;;;0.60;0.10;;;17.10;68.90;;;;;;5005277;28;20030;-83
2021/06/24 05:58:30;;;;;;;1.88;1.00;;;17.20;68.80;;;;;;5011844;28;20029;-83
2021/06/24 06:00:57;;;;;;;3.88;0.60;;;17.20;68.80;;;;;;5011563;28;20030;-83
2021/06/24 06:03:23;;;;;;;0.50;0.20;;;17.20;68.60;;;;;;5011016;28;20039;-81
2021/06/24 06:05:50;;;;;;;0.68;0.52;;;17.20;68.60;;;;;;5026447;28;20046;-83
2021/06/24 06:08:16;;;;;;;3.95;0.60;;;17.30;68.50;;;;;;5011715;28;20053;-83
2021/06/24 06:10:43;;;;;;;0.00;0.00;;;17.40;68.40;;;;;;5011744;28;20026;-83
2021/06/24 06:13:09;;;;;;;0.65;0.10;;;17.40;68.10;;;;;;5027083;28;20383;-83
2021/06/24 06:15:39;;;;;;;0.20;0.00;;;17.50;68.00;;;;;;5011763;28;20492;-81
2021/06/24 06:18:17;;;;;;;0.40;0.20;;;17.50;67.90;;;;;;5010808;28;20030;-83
2021/06/24 06:20:44;;;;;;;1.00;0.10;;;17.60;67.80;;;;;;5007737;28;20042;-83
2021/06/24 06:23:14;;;;;;;1.08;0.20;;;17.60;67.80;;;;;;5021284;28;20048;-84
2021/06/24 06:25:40;;;;;;;1.67;0.70;;;17.80;67.60;;;;;;5026782;28;20404;-83
2021/06/24 06:28:06;;;;;;;1.27;0.00;;;17.90;67.30;;;;;;5011501;28;20510;-84
2021/06/24 06:30:33;;;;;;;0.95;0.30;;;18.00;66.90;;;;;;5026549;28;20042;-84
2021/06/24 06:33:01;;;;;;;0.32;0.10;;;18.10;66.80;;;;;;5010428;28;20041;-83
2021/06/24 06:35:27;;;;;;;2.05;0.40;;;18.20;66.90;;;;;;5011460;28;20026;-82
2021/06/24 06:37:53;;;;;;;2.05;0.40;;;18.20;66.60;;;;;;5011306;28;20033;-84
2021/06/24 06:40:19;;;;;;;0.80;0.15;;;18.30;66.50;;;;;;5028940;28;20034;-83
2021/06/24 06:42:47;;;;;;;1.55;0.38;;;18.40;66.30;;;;;;5030313;28;20098;-84
2021/06/24 06:45:13;;;;;;;0.28;0.10;;;18.50;66.40;;;;;;5015293;28;20521;-83
2021/06/24 06:47:40;;;;;;;0.10;0.00;;;18.60;66.00;;;;;;5029609;28;20037;-84
2021/06/24 06:50:06;;;;;;;13.95;0.57;;;18.60;65.90;;;;;;5014782;28;20493;-84
2021/06/24 06:52:32;;;;;;;0.90;0.32;;;18.70;65.80;;;;;;5014673;28;20059;-84
2021/06/24 06:54:58;;;;;;;0.30;0.15;;;18.60;65.60;;;;;;5014940;28;20383;-85
2021/06/24 06:57:25;;;;;;;0.88;0.57;;;18.40;66.60;;;;;;5015340;28;20037;-83
2021/06/24 06:59:51;;;;;;;0.63;0.47;;;18.30;66.20;;;;;;5014850;28;20034;-84
2021/06/24 07:02:17;;;;;;;0.13;0.00;;;18.10;66.50;;;;;;5029226;28;20030;-84
2021/06/24 07:04:43;;;;;;;1.70;0.20;;;18.00;66.60;;;;;;5014602;28;20037;-84
2021/06/24 07:07:09;;;;;;;0.57;0.17;;;17.90;66.70;;;;;;5014681;28;20037;-84
2021/06/24 07:09:35;;;;;;;0.95;0.15;;;17.80;66.90;;;;;;5014558;28;20476;-83
2021/06/24 07:12:01;;;;;;;0.47;0.10;;;17.80;66.80;;;;;;5014922;28;20037;-84
2021/06/24 07:14:28;;;;;;;0.25;0.00;;;17.90;66.60;;;;;;5015483;28;20034;-83
2021/06/24 07:16:54;;;;;;;0.22;0.10;;;18.00;66.40;;;;;;5013598;28;20036;-84
2021/06/24 07:19:20;;;;;;;3.97;0.80;;;18.10;65.90;;;;;;5014537;28;20045;-84
2021/06/24 07:21:46;;;;;;;0.20;0.03;;;18.20;65.80;;;;;;5014397;28;20096;-83
2021/06/24 07:24:14;;;;;;;0.35;0.10;;;18.30;65.60;;;;;;5014873;28;20041;-84
2021/06/24 07:26:40;;;;;;;0.00;0.00;;;18.50;65.60;;;;;;5028717;28;20045;-84
2021/06/24 07:29:06;;;;;;;11.43;0.52;;;18.70;65.20;;;;;;5014082;28;20046;-85
2021/06/24 07:31:32;;;;;;;1.05;0.20;;;18.90;64.80;;;;;;5012243;28;20116;-84
2021/06/24 07:33:59;;;;;;;3.13;0.22;;;19.10;64.40;;;;;;5014112;28;20388;-84
2021/06/24 07:36:25;;;;;;;0.73;0.20;;;19.20;64.00;;;;;;5014585;28;20106;-83
2021/06/24 07:38:51;;;;;;;0.57;0.20;;;19.30;63.70;;;;;;5029218;28;20508;-84
2021/06/24 07:41:17;;;;;;;3.55;0.50;;;19.30;63.60;;;;;;5013835;28;20026;-84
2021/06/24 07:43:43;;;;;;;0.75;0.20;;;19.40;63.60;;;;;;5014035;28;20036;-84
2021/06/24 07:46:09;;;;;;;1.55;0.10;;;19.60;63.40;;;;;;5013069;28;20026;-84
2021/06/24 07:48:35;;;;;;;0.90;0.15;;;19.80;63.30;;;;;;5029110;28;20026;-83
2021/06/24 07:51:01;;;;;;;0.25;0.00;;;20.00;62.90;;;;;;5012645;28;20029;-83
2021/06/24 07:53:27;;;;;;;0.30;0.10;;;20.20;62.60;;;;;;5013871;28;20045;-84
2021/06/24 07:55:53;;;;;;;1.38;0.40;;;20.30;62.20;;;;;;5013638;28;20033;-87
2021/06/24 07:58:19;;;;;;;2.97;0.13;;;20.40;61.90;;;;;;5013717;28;20030;-84
2021/06/24 08:00:46;;;;;;;0.57;0.25;;;20.50;61.70;;;;;;5028216;28;20029;-84
2021/06/24 08:03:12;;;;;;;2.55;0.22;;;20.70;61.50;;;;;;5014329;28;20230;-82
2021/06/24 08:05:38;;;;;;;1.40;0.05;;;21.00;61.20;;;;;;5013606;28;20034;-84
2021/06/24 08:08:04;;;;;;;0.45;0.25;;;21.30;60.60;;;;;;5008768;28;20040;-85
2021/06/24 08:10:30;;;;;;;0.52;0.17;;;21.60;59.80;;;;;;5002193;28;20041;-85
2021/06/24 08:12:56;;;;;;;0.40;0.20;;;21.60;59.60;;;;;;4997785;28;20029;-85
2021/06/24 08:15:26;;;;;;;0.77;0.10;;;21.70;59.30;;;;;;5011952;28;20064;-86
2021/06/24 08:17:52;;;;;;;0.20;0.00;;;21.70;59.10;;;;;;5013231;28;20030;-85
2021/06/24 08:20:18;;;;;;;0.20;0.10;;;21.70;59.10;;;;;;5027818;28;20048;-84
2021/06/24 08:22:44;;;;;;;0.52;0.10;;;21.80;58.90;;;;;;5013317;28;20025;-85
2021/06/24 08:25:11;;;;;;;3.08;0.32;;;21.90;58.90;;;;;;5011773;28;20034;-85
2021/06/24 08:27:38;;;;;;;1.55;0.10;;;22.00;58.70;;;;;;5028105;28;20053;-85
2021/06/24 08:30:05;;;;;;;0.43;0.25;;;22.00;58.50;;;;;;5011234;28;20534;-85
2021/06/24 08:32:31;;;;;;;0.00;0.00;;;22.10;58.50;;;;;;5012999;28;20037;-84
2021/06/24 08:34:57;;;;;;;0.10;0.10;;;22.20;58.00;;;;;;5013108;28;20041;-85
2021/06/24 08:37:23;;;;;;;0.00;0.00;;;22.20;57.60;;;;;;5028264;28;20033;-84
2021/06/24 08:39:50;;;;;;;0.00;0.00;;;22.10;57.70;;;;;;5028000;28;20400;-85
2021/06/24 08:42:16;;;;;;;0.10;0.00;;;22.10;57.40;;;;;;5013354;28;20418;-79
2021/06/24 08:44:44;;;;;;;0.10;0.00;;;22.10;57.20;;;;;;5027625;28;20050;-85
2021/06/24 08:47:15;;;;;;;0.00;0.00;;;22.20;57.10;;;;;;5012548;28;20064;-85
2021/06/24 08:49:41;;;;;;;0.28;0.10;;;22.20;56.80;;;;;;5012494;28;20041;-85
2021/06/24 08:52:08;;;;;;;0.43;0.20;;;22.30;56.70;;;;;;5012563;28;20025;-87
2021/06/24 08:54:34;;;;;;;0.10;0.00;;;22.30;56.20;;;;;;5011532;28;20049;-85
2021/06/24 08:57:00;;;;;;;0.47;0.22;;;22.30;56.00;;;;;;5012585;28;20377;-85
2021/06/24 08:59:26;;;;;;;3.53;0.30;;;22.30;55.60;;;;;;5027457;28;20042;-85
2021/06/24 09:01:54;;;;;;;0.30;0.20;;;22.20;55.30;;;;;;5011666;28;20053;-85
2021/06/24 09:04:22;;;;;;;0.22;0.00;;;22.20;55.30;;;;;;5027651;28;20584;-86
2021/06/24 09:06:49;;;;;;;0.00;0.00;;;22.40;54.80;;;;;;5027431;28;20054;-86
2021/06/24 09:09:29;;;;;;;0.20;0.10;;;22.40;54.40;;;;;;5012906;28;20044;-84
2021/06/24 09:12:09;;;;;;;0.35;0.10;;;22.50;54.40;;;;;;5027133;28;20036;-85
2021/06/24 09:14:41;;;;;;;0.45;0.10;;;22.50;53.90;;;;;;5027413;28;20420;-82
2021/06/24 09:17:07;;;;;;;0.30;0.10;;;22.50;53.80;;;;;;5011790;28;20026;-85
2021/06/24 09:19:33;;;;;;;0.10;0.00;;;22.50;53.40;;;;;;5027255;28;20034;-85
2021/06/24 09:22:01;;;;;;;0.30;0.10;;;22.60;53.20;;;;;;5012356;28;20041;-87
2021/06/24 09:24:37;;;;;;;3.40;0.20;;;22.60;53.10;;;;;;5028028;28;20033;-87
2021/06/24 09:27:23;;;;;;;0.85;0.32;;;22.70;52.80;;;;;;5026443;28;20041;-86
2021/06/24 09:30:10;;;;;;;0.00;0.00;;;22.80;52.50;;;;;;5024604;28;20061;-86
2021/06/24 09:32:42;;;;;;;0.40;0.35;;;22.90;51.90;;;;;;4992180;28;20505;-87
2021/06/24 09:35:10;;;;;;;3.20;0.10;;;22.90;51.80;;;;;;4993488;28;20034;-85
2021/06/24 09:38:22;;;;;;;0.40;0.00;;;22.90;51.70;;;;;;5002772;28;20034;-86
2021/06/24 09:40:55;;;;;;;0.98;0.10;;;22.90;51.10;;;;;;4984210;28;20481;-86
2021/06/24 09:43:27;;;;;;;0.93;0.20;;;23.00;51.10;;;;;;4991420;28;20041;-85
2021/06/24 09:46:06;;;;;;;0.20;0.08;;;23.10;50.90;;;;;;4992211;28;20030;-86
2021/06/24 09:48:40;;;;;;;0.00;0.00;;;23.20;50.70;;;;;;4988613;28;20039;-86
2021/06/24 09:51:07;;;;;;;0.00;0.00;;;23.30;50.40;;;;;;4989442;28;20045;-83
2021/06/24 09:53:33;;;;;;;0.45;0.20;;;23.30;49.70;;;;;;5007725;28;20023;-86
2021/06/24 09:56:17;;;;;;;6.32;0.10;;;23.30;49.00;;;;;;5007294;28;20469;-86
2021/06/24 09:58:47;;;;;;;0.10;0.00;;;23.30;49.00;;;;;;5005868;28;20030;-86
2021/06/24 10:01:28;;;;;;;0.38;0.00;;;23.30;48.60;;;;;;5016899;28;20042;-85
2021/06/24 10:03:55;;;;;;;0.15;0.03;;;23.40;48.40;;;;;;5027223;28;20030;-86
2021/06/24 10:06:22;;;;;;;1.48;0.10;;;23.40;47.90;;;;;;5012393;28;20038;-86
2021/06/24 10:08:48;;;;;;;0.80;0.10;;;23.50;48.00;;;;;;5026706;28;20029;-86
2021/06/24 10:11:14;;;;;;;0.20;0.10;;;23.60;47.90;;;;;;5011447;28;20511;-86
2021/06/24 10:13:40;;;;;;;0.47;0.03;;;23.60;47.30;;;;;;5012798;28;20480;-86
2021/06/24 10:16:06;;;;;;;0.30;0.10;;;23.70;47.10;;;;;;5015078;28;20029;-84
2021/06/24 10:18:32;;;;;;;0.10;0.00;;;23.70;47.40;;;;;;5031211;28;20030;-85
2021/06/24 10:20:59;;;;;;;2.65;0.13;;;23.80;47.50;;;;;;5015011;28;20041;-85
2021/06/24 10:23:25;;;;;;;0.73;0.03;;;23.90;47.00;;;;;;5030926;28;20460;-85
2021/06/24 10:25:51;;;;;;;0.15;0.03;;;24.00;46.90;;;;;;5030392;28;20025;-85
2021/06/24 10:28:18;;;;;;;0.20;0.10;;;24.10;46.50;;;;;;5030719;28;20503;-87
2021/06/24 10:30:44;;;;;;;0.30;0.10;;;24.10;46.40;;;;;;5029928;28;20057;-85
2021/06/24 10:33:12;;;;;;;0.00;0.00;;;24.10;46.30;;;;;;5014738;28;20026;-86
2021/06/24 10:35:40;;;;;;;0.45;0.10;;;24.20;46.20;;;;;;5015145;28;20037;-82
2021/06/24 10:38:07;;;;;;;0.35;0.05;;;24.20;46.30;;;;;;5030301;28;20033;-86
2021/06/24 10:40:34;;;;;;;1.92;0.28;;;24.30;46.20;;;;;;5023432;28;20250;-86
2021/06/24 10:43:02;;;;;;;0.30;0.00;;;24.40;46.30;;;;;;5008219;28;20041;-85
2021/06/24 10:45:28;;;;;;;0.52;0.20;;;24.50;46.20;;;;;;5010560;28;20030;-85
2021/06/24 10:47:56;;;;;;;0.65;0.10;;;24.60;45.70;;;;;;5007081;28;20384;-86
2021/06/24 10:50:42;;;;;;;0.45;0.00;;;24.60;45.40;;;;;;5006199;28;20050;-85
2021/06/24 10:53:11;;;;;;;0.30;0.10;;;24.60;45.70;;;;;;5012196;28;20480;-83
2021/06/24 10:55:39;;;;;;;0.73;0.20;;;24.60;45.80;;;;;;5006075;28;20026;-84
2021/06/24 10:58:11;;;;;;;0.05;0.00;;;24.70;45.80;;;;;;5009609;28;20109;-85
2021/06/24 11:00:46;;;;;;;0.47;0.20;;;24.80;45.30;;;;;;5003948;28;20038;-85
2021/06/24 11:03:16;;;;;;;0.43;0.10;;;24.80;45.00;;;;;;4992819;28;20381;-85
2021/06/24 11:05:43;;;;;;;0.08;0.00;;;24.80;44.90;;;;;;4986653;28;20026;-86
2021/06/24 11:08:17;;;;;;;0.60;0.20;;;24.80;44.90;;;;;;4995901;28;20054;-84
2021/06/24 11:11:07;;;;;;;0.20;0.00;;;24.90;44.90;;;;;;4984627;28;20034;-86
2021/06/24 11:13:36;;;;;;;0.63;0.20;;;24.90;44.60;;;;;;4986249;28;20529;-86
2021/06/24 11:16:09;;;;;;;1.58;0.22;;;24.90;44.80;;;;;;4989550;28;20478;-88
2021/06/24 11:18:35;;;;;;;0.35;0.10;;;25.20;45.10;;;;;;4979597;28;20023;-87
2021/06/24 11:21:03;;;;;;;0.95;0.10;;;25.40;44.90;;;;;;4987725;28;20057;-86
2021/06/24 11:23:37;;;;;;;0.88;0.10;;;25.70;44.40;;;;;;4991350;28;20029;-87
2021/06/24 11:26:07;;;;;;;0.10;0.00;;;25.70;44.20;;;;;;4985426;28;20046;-87
2021/06/24 11:31:11;;;;;;;0.80;0.10;;;25.70;44.20;;;;;;4991749;28;20046;-84
2021/06/24 11:33:49;;;;;;;0.22;0.10;;;25.60;44.30;;;;;;4988994;28;20029;-85
2021/06/24 11:36:19;;;;;;;0.52;0.10;;;25.70;44.20;;;;;;4991166;28;20031;-82
2021/06/24 11:38:46;;;;;;;0.47;0.22;;;25.70;44.30;;;;;;4999971;28;20038;-86
2021/06/24 11:41:13;;;;;;;1.13;0.45;;;25.70;44.00;;;;;;4991835;28;20400;-87
2021/06/24 11:43:40;;;;;;;1.25;0.10;;;25.70;44.10;;;;;;4985589;28;20031;-85
2021/06/24 11:46:06;;;;;;;4.85;0.22;;;25.70;44.20;;;;;;4988454;28;20042;-86
2021/06/24 11:48:32;;;;;;;0.55;0.00;;;25.90;44.10;;;;;;4988343;28;20038;-86
2021/06/24 12:04:56;;;;;;;1.38;0.30;;;25.90;43.50;;;;;;4991917;28;20417;-87
2021/06/24 12:07:22;;;;;;;0.25;0.05;;;26.00;43.60;;;;;;5001257;28;20030;-84
2021/06/24 12:09:52;;;;;;;0.32;0.10;;;26.00;43.40;;;;;;4989769;28;20042;-86
2021/06/24 12:12:23;;;;;;;1.33;0.25;;;26.00;43.40;;;;;;4971249;28;20038;-85
2021/06/24 12:14:50;;;;;;;0.20;0.00;;;26.20;43.50;;;;;;4985123;28;20046;-87
2021/06/24 12:17:16;;;;;;;0.95;0.30;;;26.40;43.30;;;;;;4999452;28;20138;-85
2021/06/24 12:20:06;;;;;;;0.20;0.00;;;26.50;43.20;;;;;;4990687;28;20423;-86
2021/06/24 12:22:36;;;;;;;0.73;0.10;;;26.60;42.90;;;;;;4999779;28;20046;-86
2021/06/24 12:25:14;;;;;;;0.10;0.00;;;26.60;42.70;;;;;;4988539;28;20035;-86
2021/06/24 12:27:59;;;;;;;1.00;0.30;;;26.50;42.50;;;;;;4988421;28;20034;-89
2021/06/24 12:30:29;;;;;;;3.63;0.35;;;26.40;42.40;;;;;;4987979;28;20050;-84
2021/06/24 12:32:57;;;;;;;0.13;0.00;;;26.30;42.50;;;;;;4983523;28;20452;-86
2021/06/24 12:35:25;;;;;;;1.05;0.13;;;26.20;42.30;;;;;;5007729;28;20030;-87
2021/06/24 12:37:52;;;;;;;0.32;0.10;;;26.20;42.40;;;;;;4992529;28;20038;-86
2021/06/24 12:40:18;;;;;;;0.17;0.00;;;26.10;42.30;;;;;;4993450;28;20050;-83
2021/06/24 12:42:52;;;;;;;0.20;0.05;;;26.00;42.50;;;;;;5008502;28;20472;-85
2021/06/24 12:45:21;;;;;;;0.00;0.00;;;26.00;42.60;;;;;;4994295;28;20477;-86
2021/06/24 12:47:47;;;;;;;1.08;0.22;;;26.10;42.20;;;;;;5007994;28;20034;-87
2021/06/24 12:50:18;;;;;;;0.55;0.17;;;26.00;42.10;;;;;;5022679;28;20042;-86
2021/06/24 12:52:47;;;;;;;0.93;0.00;;;26.10;42.10;;;;;;5012779;28;20358;-86
2021/06/24 12:55:52;;;;;;;0.57;0.20;;;26.00;41.60;;;;;;5012712;28;20052;-86
2021/06/24 12:58:33;;;;;;;0.80;0.28;;;26.00;41.70;;;;;;4995352;28;20034;-87
2021/06/24 13:01:12;;;;;;;;;;;26.00;41.60;;;;;;5010364;28;20053;-86
2021/06/24 13:03:40;;;;;;;0.00;0.00;;;26.00;41.50;;;;;;4978252;28;19906;-84
2021/06/24 13:06:11;;;;;;;0.32;0.00;;;26.00;41.30;;;;;;4978768;28;20050;-86
2021/06/24 13:08:37;;;;;;;;;;;26.20;41.40;;;;;;5004389;28;20030;-87